createdAt,value
2023-05-10T00:00:30.565Z,11.86
2023-05-10T00:02:58.156Z,11.85
2023-05-10T00:05:25.307Z,11.79
2023-05-10T00:07:52.356Z,11.73
2023-05-10T00:10:19.535Z,11.70
2023-05-10T00:12:46.824Z,11.65
2023-05-10T00:15:14.131Z,11.61
2023-05-10T00:17:41.187Z,11.52
2023-05-10T00:20:08.673Z,11.49
2023-05-10T00:22:36.065Z,11.47
2023-05-10T00:25:03.249Z,11.42
2023-05-10T00:27:30.361Z,11.37
2023-05-10T00:29:57.443Z,11.35
2023-05-10T00:32:24.685Z,11.28
2023-05-10T00:34:52.653Z,11.28
2023-05-10T00:37:19.870Z,11.23
2023-05-10T00:39:46.902Z,11.18
2023-05-10T00:42:14.023Z,11.12
2023-05-10T00:44:42.430Z,11.07
2023-05-10T00:47:10.095Z,11.01
2023-05-10T00:49:37.607Z,11.01
2023-05-10T00:52:05.472Z,10.95
2023-05-10T00:54:32.681Z,10.89
2023-05-10T00:57:00.140Z,10.84
2023-05-10T00:59:27.292Z,10.77
2023-05-10T01:01:54.540Z,10.77
2023-05-10T01:04:26.878Z,10.69
2023-05-10T01:06:55.083Z,10.75
2023-05-10T01:09:23.112Z,10.62
2023-05-10T01:11:50.501Z,10.63
2023-05-10T01:14:20.022Z,10.61
2023-05-10T01:16:49.318Z,10.57
2023-05-10T01:19:22.644Z,10.51
2023-05-10T01:21:55.537Z,10.48
2023-05-10T01:24:29.281Z,10.46
2023-05-10T01:27:16.312Z,10.36
2023-05-10T01:29:58.176Z,10.30
2023-05-10T01:32:45.378Z,10.24
2023-05-10T01:35:18.633Z,10.15
2023-05-10T01:37:53.824Z,10.14
2023-05-10T01:40:28.687Z,10.10
2023-05-10T01:43:00.268Z,10.04
2023-05-10T01:45:33.751Z,10.10
2023-05-10T01:48:08.832Z,9.99
2023-05-10T01:50:38.132Z,10.01
2023-05-10T01:53:09.302Z,10.02
2023-05-10T01:55:40.626Z,10.01
2023-05-10T01:58:09.557Z,9.98
2023-05-10T02:00:37.020Z,9.93
2023-05-10T02:03:07.106Z,9.93
2023-05-10T02:05:36.399Z,9.94
2023-05-10T02:08:05.151Z,9.88
2023-05-10T02:10:33.006Z,9.85
2023-05-10T02:13:01.244Z,9.80
2023-05-10T02:15:29.098Z,9.76
2023-05-10T02:17:57.525Z,9.77
2023-05-10T02:20:26.495Z,9.75
2023-05-10T02:22:55.619Z,9.71
2023-05-10T02:25:23.434Z,9.69
2023-05-10T02:27:51.559Z,9.69
2023-05-10T02:30:19.645Z,9.68
2023-05-10T02:32:47.367Z,9.67
2023-05-10T02:35:14.719Z,9.62
2023-05-10T02:37:42.934Z,9.58
2023-05-10T02:40:10.660Z,9.56
2023-05-10T02:42:39.053Z,9.51
2023-05-10T02:45:13.430Z,9.51
2023-05-10T02:47:40.838Z,9.47
2023-05-10T02:50:08.587Z,9.50
2023-05-10T02:52:40.372Z,9.45
2023-05-10T02:55:10.729Z,9.46
2023-05-10T02:57:40.383Z,9.43
2023-05-10T03:00:08.689Z,9.43
2023-05-10T03:02:37.733Z,9.48
2023-05-10T03:05:05.527Z,9.42
2023-05-10T03:07:33.061Z,9.36
2023-05-10T03:10:00.441Z,9.34
2023-05-10T03:12:27.963Z,9.34
2023-05-10T03:15:15.835Z,9.34
2023-05-10T03:17:43.046Z,9.34
2023-05-10T03:20:12.864Z,9.41
2023-05-10T03:22:45.626Z,9.44
2023-05-10T03:25:13.750Z,9.49
2023-05-10T03:27:43.027Z,9.47
2023-05-10T03:30:12.228Z,9.50
2023-05-10T03:32:39.619Z,9.59
2023-05-10T03:35:14.697Z,9.67
2023-05-10T03:37:42.463Z,9.67
2023-05-10T03:40:10.622Z,9.63
2023-05-10T03:42:40.130Z,9.61
2023-05-10T03:45:07.646Z,9.62
2023-05-10T03:47:35.078Z,9.59
2023-05-10T03:50:02.114Z,9.57
2023-05-10T03:52:29.257Z,9.54
2023-05-10T03:54:56.581Z,9.49
2023-05-10T03:57:24.371Z,9.48
2023-05-10T03:59:51.597Z,9.43
2023-05-10T04:02:18.825Z,9.39
2023-05-10T04:04:46.257Z,9.40
2023-05-10T04:07:13.343Z,9.33
2023-05-10T04:09:40.716Z,9.33
2023-05-10T04:12:10.139Z,9.37
2023-05-10T04:14:38.591Z,9.40
2023-05-10T04:17:06.047Z,9.44
2023-05-10T04:19:33.607Z,9.42
2023-05-10T04:22:01.010Z,9.49
2023-05-10T04:24:27.988Z,9.54
2023-05-10T04:26:57.762Z,9.59
2023-05-10T04:29:28.786Z,9.62
2023-05-10T04:31:57.046Z,9.64
2023-05-10T04:34:24.330Z,9.63
2023-05-10T04:36:51.700Z,9.69
2023-05-10T04:39:19.148Z,9.71
2023-05-10T04:41:46.435Z,9.67
2023-05-10T04:44:17.096Z,9.70
2023-05-10T04:46:44.358Z,9.67
2023-05-10T04:49:15.649Z,9.69
2023-05-10T04:51:42.999Z,9.67
2023-05-10T04:54:10.243Z,9.69
2023-05-10T04:56:37.640Z,9.74
2023-05-10T04:59:05.139Z,9.81
2023-05-10T05:01:32.277Z,9.86
2023-05-10T05:03:59.948Z,9.85
2023-05-10T05:06:28.543Z,9.89
2023-05-10T05:08:55.740Z,9.94
2023-05-10T05:11:24.077Z,9.96
2023-05-10T05:13:56.193Z,10.02
2023-05-10T05:16:33.951Z,10.02
2023-05-10T05:19:02.003Z,10.09
2023-05-10T05:21:30.536Z,10.15
2023-05-10T05:23:57.831Z,10.18
2023-05-10T05:26:25.053Z,10.23
2023-05-10T05:28:56.883Z,10.27
2023-05-10T05:31:27.801Z,10.31
2023-05-10T05:33:56.099Z,10.04
2023-05-10T05:36:23.849Z,10.39
2023-05-10T05:38:57.616Z,10.45
2023-05-10T05:41:27.957Z,10.52
2023-05-10T05:43:55.732Z,10.60
2023-05-10T05:46:23.666Z,10.66
2023-05-10T05:48:50.890Z,10.68
2023-05-10T05:51:18.518Z,10.74
2023-05-10T05:53:45.595Z,10.79
2023-05-10T05:56:12.733Z,10.85
2023-05-10T05:58:39.849Z,10.89
2023-05-10T06:01:07.042Z,10.98
2023-05-10T06:03:34.588Z,11.04
2023-05-10T06:06:01.627Z,11.12
2023-05-10T06:08:28.826Z,11.19
2023-05-10T06:10:55.945Z,11.26
2023-05-10T06:13:23.068Z,11.32
2023-05-10T06:15:50.467Z,11.35
2023-05-10T06:18:17.450Z,11.42
2023-05-10T06:20:44.564Z,11.45
2023-05-10T06:23:11.881Z,11.50
2023-05-10T06:25:39.322Z,11.54
2023-05-10T06:28:06.419Z,11.58
2023-05-10T06:30:33.891Z,11.60
2023-05-10T06:33:01.234Z,11.60
2023-05-10T06:35:28.251Z,11.66
2023-05-10T06:37:57.424Z,11.72
2023-05-10T06:40:28.996Z,11.79
2023-05-10T06:42:56.834Z,11.86
2023-05-10T06:45:24.492Z,11.96
2023-05-10T06:47:58.596Z,12.04
2023-05-10T06:50:26.487Z,12.19
2023-05-10T06:52:53.586Z,12.32
2023-05-10T06:55:20.911Z,12.42
2023-05-10T06:57:58.176Z,12.49
2023-05-10T07:00:32.940Z,12.61
2023-05-10T07:03:02.106Z,12.70
2023-05-10T07:05:30.873Z,12.77
2023-05-10T07:07:59.276Z,12.89
2023-05-10T07:10:26.951Z,13.03
2023-05-10T07:12:55.051Z,13.23
2023-05-10T07:15:22.541Z,13.34
2023-05-10T07:17:49.678Z,13.44
2023-05-10T07:20:17.355Z,13.58
2023-05-10T07:22:44.557Z,13.70
2023-05-10T07:25:12.212Z,13.79
2023-05-10T07:27:39.540Z,13.88
2023-05-10T07:30:09.653Z,14.03
2023-05-10T07:32:37.028Z,14.03
2023-05-10T07:35:04.712Z,14.10
2023-05-10T07:37:32.099Z,14.18
2023-05-10T07:39:59.243Z,14.25
2023-05-10T07:42:26.477Z,14.25
2023-05-10T07:44:54.316Z,14.29
2023-05-10T07:47:21.891Z,14.17
2023-05-10T07:49:48.971Z,14.15
2023-05-10T07:52:16.988Z,14.04
2023-05-10T07:54:44.222Z,14.08
2023-05-10T07:57:11.223Z,14.14
2023-05-10T07:59:38.293Z,14.15
2023-05-10T08:02:05.641Z,14.02
2023-05-10T08:04:33.201Z,14.11
2023-05-10T08:07:00.278Z,14.13
2023-05-10T08:09:27.317Z,14.14
2023-05-10T08:11:54.964Z,14.19
2023-05-10T08:14:22.178Z,14.27
2023-05-10T08:16:49.415Z,14.28
2023-05-10T08:19:20.180Z,14.37
2023-05-10T08:21:47.323Z,14.46
2023-05-10T08:24:14.425Z,14.51
2023-05-10T08:26:41.625Z,14.55
2023-05-10T08:29:09.209Z,14.63
2023-05-10T08:31:36.450Z,14.65
2023-05-10T08:34:03.553Z,14.71
2023-05-10T08:36:31.192Z,14.86
2023-05-10T08:38:58.252Z,15.07
2023-05-10T08:41:27.563Z,15.24
2023-05-10T08:43:55.296Z,15.42
2023-05-10T08:46:23.535Z,15.73
2023-05-10T08:48:56.136Z,16.02
2023-05-10T08:51:29.206Z,16.06
2023-05-10T08:54:00.523Z,16.13
2023-05-10T08:56:28.281Z,15.99
2023-05-10T08:58:56.611Z,15.84
2023-05-10T09:01:23.918Z,15.62
2023-05-10T09:03:51.969Z,15.53
2023-05-10T09:06:19.587Z,15.46
2023-05-10T09:08:47.175Z,15.53
2023-05-10T09:11:14.550Z,15.72
2023-05-10T09:13:41.922Z,15.84
2023-05-10T09:16:20.425Z,15.97
2023-05-10T09:18:51.421Z,15.99
2023-05-10T09:21:20.648Z,16.28
2023-05-10T09:23:51.414Z,16.52
2023-05-10T09:26:18.690Z,16.77
2023-05-10T09:28:55.965Z,16.77
2023-05-10T09:31:23.565Z,16.80
2023-05-10T09:33:51.217Z,16.92
2023-05-10T09:36:18.457Z,16.64
2023-05-10T09:38:53.290Z,16.76
2023-05-10T09:41:21.921Z,17.06
2023-05-10T09:43:50.385Z,17.31
2023-05-10T09:46:18.078Z,17.48
2023-05-10T09:48:46.338Z,17.58
2023-05-10T09:51:23.385Z,17.81
2023-05-10T09:54:09.797Z,18.19
2023-05-10T09:56:38.797Z,18.02
2023-05-10T09:59:07.758Z,17.80
2023-05-10T10:01:37.317Z,17.56
2023-05-10T10:04:06.158Z,17.73
2023-05-10T10:06:45.002Z,17.89
2023-05-10T10:09:12.337Z,17.65
2023-05-10T10:11:40.094Z,17.37
2023-05-10T10:14:07.476Z,17.30
2023-05-10T10:16:34.869Z,17.38
2023-05-10T10:19:02.667Z,17.52
2023-05-10T10:21:32.013Z,17.44
2023-05-10T10:23:59.338Z,17.63
2023-05-10T10:26:26.765Z,17.76
2023-05-10T10:29:12.621Z,17.84
2023-05-10T10:31:43.828Z,17.42
2023-05-10T10:34:16.017Z,17.59
2023-05-10T10:36:47.517Z,17.68
2023-05-10T10:39:18.007Z,17.92
2023-05-10T10:41:53.916Z,18.15
2023-05-10T10:44:27.736Z,18.18
2023-05-10T10:47:15.768Z,18.00
2023-05-10T10:49:46.993Z,18.11
2023-05-10T10:52:44.041Z,18.17
2023-05-10T10:55:15.488Z,18.46
2023-05-10T10:57:43.185Z,18.45
2023-05-10T11:00:21.892Z,18.14
2023-05-10T11:02:50.699Z,18.19
2023-05-10T11:05:30.144Z,18.26
2023-05-10T11:07:58.123Z,18.40
2023-05-10T11:10:25.960Z,18.31
2023-05-10T11:13:05.006Z,18.36
2023-05-10T11:15:34.500Z,18.75
2023-05-10T11:18:17.819Z,18.69
2023-05-10T11:20:45.983Z,18.85
2023-05-10T11:23:14.553Z,18.69
2023-05-10T11:25:45.676Z,18.62
2023-05-10T11:28:18.156Z,18.82
2023-05-10T11:30:50.017Z,18.89
2023-05-10T11:33:18.776Z,18.86
2023-05-10T11:35:46.663Z,19.07
2023-05-10T11:38:15.762Z,19.21
2023-05-10T11:40:43.551Z,19.39
2023-05-10T11:43:11.827Z,19.57
2023-05-10T11:45:40.306Z,19.85
2023-05-10T11:48:07.783Z,19.74
2023-05-10T11:50:34.947Z,19.50
2023-05-10T11:53:02.113Z,19.24
2023-05-10T11:55:31.483Z,19.13
2023-05-10T11:58:02.862Z,19.22
2023-05-10T12:00:30.966Z,19.28
2023-05-10T12:03:01.947Z,19.20
2023-05-10T12:05:32.993Z,19.47
2023-05-10T12:08:14.581Z,19.78
2023-05-10T12:10:42.229Z,20.06
2023-05-10T12:13:14.447Z,19.95
2023-05-10T12:15:42.695Z,19.95
2023-05-10T12:18:21.268Z,19.73
2023-05-10T12:20:48.903Z,19.94
2023-05-10T12:23:17.008Z,19.96
2023-05-10T12:25:44.557Z,20.18
2023-05-10T12:28:11.697Z,20.25
2023-05-10T12:30:39.368Z,20.24
2023-05-10T12:33:10.743Z,20.22
2023-05-10T12:35:54.455Z,19.56
2023-05-10T12:38:33.625Z,19.51
2023-05-10T12:41:01.726Z,19.48
2023-05-10T12:43:29.849Z,19.65
2023-05-10T12:45:58.265Z,19.95
2023-05-10T12:48:29.329Z,20.02
2023-05-10T12:50:57.617Z,19.92
2023-05-10T12:53:25.581Z,19.74
2023-05-10T12:55:53.785Z,19.50
2023-05-10T13:00:55.072Z,19.46
2023-05-10T13:03:26.070Z,19.34
2023-05-10T13:05:56.180Z,19.80
2023-05-10T13:08:23.621Z,19.91
2023-05-10T13:10:51.547Z,19.96
2023-05-10T13:13:20.885Z,19.91
2023-05-10T13:15:52.170Z,19.95
2023-05-10T13:18:20.178Z,19.68
2023-05-10T13:20:57.797Z,19.43
2023-05-10T13:23:25.277Z,19.24
2023-05-10T13:25:55.172Z,19.36
2023-05-10T13:28:22.577Z,19.37
2023-05-10T13:30:49.577Z,19.35
2023-05-10T13:33:17.777Z,19.87
2023-05-10T13:35:45.112Z,19.92
2023-05-10T13:38:13.217Z,19.67
2023-05-10T13:40:42.058Z,19.65
2023-05-10T13:43:10.262Z,19.57
2023-05-10T13:45:37.982Z,19.54
2023-05-10T13:48:06.392Z,19.55
2023-05-10T13:50:34.076Z,19.45
2023-05-10T13:53:02.525Z,19.06
2023-05-10T13:55:30.633Z,18.99
2023-05-10T13:57:57.879Z,19.19
2023-05-10T14:00:25.029Z,19.35
2023-05-10T14:02:52.053Z,19.63
2023-05-10T14:05:23.830Z,19.55
2023-05-10T14:07:54.042Z,19.26
2023-05-10T14:10:21.599Z,19.06
2023-05-10T14:12:49.022Z,19.01
2023-05-10T14:15:16.412Z,19.00
2023-05-10T14:17:43.600Z,18.88
2023-05-10T14:20:12.112Z,18.84
2023-05-10T14:22:39.227Z,18.96
2023-05-10T14:25:06.218Z,18.90
2023-05-10T14:27:34.052Z,18.85
2023-05-10T14:30:01.044Z,18.44
2023-05-10T14:32:29.232Z,18.50
2023-05-10T14:34:58.707Z,18.25
2023-05-10T14:37:26.107Z,18.40
2023-05-10T14:39:53.716Z,18.44
2023-05-10T14:42:20.732Z,18.50
2023-05-10T14:44:47.790Z,18.40
2023-05-10T14:47:14.971Z,18.85
2023-05-10T14:49:43.186Z,18.97
2023-05-10T14:52:10.463Z,18.85
2023-05-10T14:54:38.599Z,18.46
2023-05-10T14:57:05.871Z,18.86
2023-05-10T14:59:32.924Z,19.05
2023-05-10T15:02:03.762Z,18.94
2023-05-10T15:04:33.743Z,18.82
2023-05-10T15:07:05.896Z,18.31
2023-05-10T15:09:33.430Z,18.49
2023-05-10T15:12:04.845Z,18.58
2023-05-10T15:14:34.719Z,18.50
2023-05-10T15:17:03.237Z,18.36
2023-05-10T15:19:31.085Z,18.49
2023-05-10T15:21:59.009Z,18.30
2023-05-10T15:24:26.583Z,18.15
2023-05-10T15:26:54.263Z,18.32
2023-05-10T15:29:24.390Z,18.16
2023-05-10T15:31:52.572Z,18.26
2023-05-10T15:34:19.818Z,18.18
2023-05-10T15:36:46.872Z,18.17
2023-05-10T15:39:14.102Z,18.17
2023-05-10T15:41:41.660Z,18.20
2023-05-10T15:44:09.138Z,17.99
2023-05-10T15:46:39.684Z,18.04
2023-05-10T15:49:08.346Z,17.96
2023-05-10T15:51:37.132Z,17.98
2023-05-10T15:54:08.401Z,18.10
2023-05-10T15:56:36.061Z,18.13
2023-05-10T15:59:04.980Z,17.92
2023-05-10T16:01:33.650Z,17.95
2023-05-10T16:04:01.677Z,18.00
2023-05-10T16:06:28.757Z,18.26
2023-05-10T16:08:58.864Z,18.38
2023-05-10T16:11:27.169Z,18.49
2023-05-10T16:13:54.963Z,18.61
2023-05-10T16:16:22.184Z,18.67
2023-05-10T16:18:49.436Z,18.56
2023-05-10T16:21:16.830Z,18.66
2023-05-10T16:23:48.553Z,18.58
2023-05-10T16:26:15.864Z,18.65
2023-05-10T16:28:42.982Z,18.43
2023-05-10T16:31:10.138Z,18.15
2023-05-10T16:33:37.567Z,17.95
2023-05-10T16:36:06.575Z,18.00
2023-05-10T16:38:33.722Z,17.94
2023-05-10T16:41:04.029Z,18.02
2023-05-10T16:43:34.058Z,17.99
2023-05-10T16:46:01.224Z,17.98
2023-05-10T16:48:28.471Z,17.94
2023-05-10T16:50:56.340Z,17.83
2023-05-10T16:53:24.437Z,17.89
2023-05-10T16:55:51.978Z,17.86
2023-05-10T16:58:28.715Z,17.76
2023-05-10T17:00:56.607Z,17.75
2023-05-10T17:03:29.316Z,17.59
2023-05-10T17:05:57.121Z,17.58
2023-05-10T17:08:25.185Z,17.55
2023-05-10T17:10:52.992Z,17.44
2023-05-10T17:13:20.368Z,17.35
2023-05-10T17:15:51.890Z,17.32
2023-05-10T17:18:23.388Z,17.28
2023-05-10T17:20:52.269Z,17.26
2023-05-10T17:23:19.879Z,17.08
2023-05-10T17:25:47.749Z,17.04
2023-05-10T17:28:17.787Z,17.09
2023-05-10T17:30:45.029Z,17.01
2023-05-10T17:33:12.647Z,16.92
2023-05-10T17:35:40.751Z,16.94
2023-05-10T17:38:08.318Z,16.84
2023-05-10T17:40:36.668Z,16.90
2023-05-10T17:43:10.529Z,16.80
2023-05-10T17:45:38.258Z,16.75
2023-05-10T17:48:09.536Z,16.72
2023-05-10T17:50:37.551Z,16.71
2023-05-10T17:53:05.793Z,16.66
2023-05-10T17:55:33.816Z,16.50
2023-05-10T17:58:03.101Z,16.46
2023-05-10T18:00:30.833Z,16.48
2023-05-10T18:02:58.020Z,16.38
2023-05-10T18:05:25.392Z,16.39
2023-05-10T18:07:53.820Z,16.50
2023-05-10T18:10:21.302Z,16.46
2023-05-10T18:12:50.183Z,16.36
2023-05-10T18:15:17.706Z,16.36
2023-05-10T18:17:44.929Z,16.24
2023-05-10T18:20:12.236Z,16.30
2023-05-10T18:22:40.254Z,16.26
2023-05-10T18:25:08.080Z,16.29
2023-05-10T18:27:35.338Z,16.22
2023-05-10T18:30:02.560Z,16.04
2023-05-10T18:32:29.657Z,15.95
2023-05-10T18:34:57.510Z,15.92
2023-05-10T18:37:24.524Z,15.87
2023-05-10T18:39:51.928Z,15.80
2023-05-10T18:42:21.069Z,15.77
2023-05-10T18:44:48.107Z,15.66
2023-05-10T18:47:15.277Z,15.61
2023-05-10T18:49:42.557Z,15.52
2023-05-10T18:52:11.867Z,15.41
2023-05-10T18:54:44.512Z,15.34
2023-05-10T18:57:13.098Z,15.29
2023-05-10T18:59:41.003Z,15.13
2023-05-10T19:02:08.341Z,15.05
2023-05-10T19:04:36.097Z,14.98
2023-05-10T19:07:07.128Z,14.85
2023-05-10T19:09:34.750Z,14.78
2023-05-10T19:12:02.678Z,14.70
2023-05-10T19:14:30.448Z,14.64
2023-05-10T19:16:57.649Z,14.55
2023-05-10T19:19:25.670Z,14.46
2023-05-10T19:21:55.120Z,14.34
2023-05-10T19:24:25.354Z,14.24
2023-05-10T19:26:52.752Z,14.17
2023-05-10T19:29:20.343Z,14.10
2023-05-10T19:31:49.246Z,14.13
2023-05-10T19:34:17.455Z,14.14
2023-05-10T19:36:45.257Z,14.19
2023-05-10T19:39:13.460Z,14.13
2023-05-10T19:41:40.726Z,14.15
2023-05-10T19:44:08.836Z,14.12
2023-05-10T19:46:36.686Z,14.09
2023-05-10T19:49:04.476Z,14.06
2023-05-10T19:51:31.666Z,14.08
2023-05-10T19:53:58.856Z,13.99
2023-05-10T19:56:27.631Z,13.94
2023-05-10T19:58:54.724Z,13.80
2023-05-10T20:01:21.967Z,13.76
2023-05-10T20:03:49.450Z,13.66
2023-05-10T20:06:16.445Z,13.65
2023-05-10T20:08:44.290Z,13.59
2023-05-10T20:11:11.639Z,13.59
2023-05-10T20:13:38.871Z,13.53
2023-05-10T20:16:07.379Z,13.48
2023-05-10T20:18:34.945Z,13.45
2023-05-10T20:21:02.111Z,13.38
2023-05-10T20:23:29.291Z,13.36
2023-05-10T20:25:56.251Z,13.33
2023-05-10T20:28:24.482Z,13.31
2023-05-10T20:30:53.275Z,13.31
2023-05-10T20:33:20.653Z,13.23
2023-05-10T20:35:47.958Z,13.19
2023-05-10T20:38:14.935Z,13.19
2023-05-10T20:40:42.359Z,13.16
2023-05-10T20:43:10.999Z,13.13
2023-05-10T20:45:39.976Z,13.14
2023-05-10T20:48:08.844Z,13.10
2023-05-10T20:50:36.810Z,13.05
2023-05-10T20:53:06.792Z,13.01
2023-05-10T20:55:38.371Z,12.96
2023-05-10T20:58:08.693Z,12.98
2023-05-10T21:00:36.482Z,12.91
2023-05-10T21:03:06.915Z,12.91
2023-05-10T21:05:35.291Z,12.89
2023-05-10T21:08:02.622Z,12.82
2023-05-10T21:10:29.768Z,12.79
2023-05-10T21:12:57.520Z,12.75
2023-05-10T21:15:29.213Z,12.75
2023-05-10T21:17:56.802Z,12.68
2023-05-10T21:20:24.800Z,12.69
2023-05-10T21:22:51.755Z,12.71
2023-05-10T21:25:19.065Z,12.74
2023-05-10T21:27:46.490Z,12.82
2023-05-10T21:30:14.618Z,12.82
2023-05-10T21:32:43.453Z,12.80
2023-05-10T21:35:10.971Z,12.80
2023-05-10T21:37:38.276Z,12.78
2023-05-10T21:40:06.125Z,12.79
2023-05-10T21:42:33.606Z,12.75
2023-05-10T21:45:01.127Z,12.71
2023-05-10T21:47:28.640Z,12.70
2023-05-10T21:49:55.943Z,12.69
2023-05-10T21:52:23.098Z,12.62
2023-05-10T21:54:50.074Z,12.56
2023-05-10T21:57:17.085Z,12.52
2023-05-10T21:59:44.259Z,12.45
2023-05-10T22:02:11.503Z,12.39
2023-05-10T22:04:38.541Z,12.30
2023-05-10T22:07:06.102Z,12.27
2023-05-10T22:09:33.218Z,12.11
2023-05-10T22:12:00.340Z,12.02
2023-05-10T22:14:27.573Z,11.94
2023-05-10T22:16:54.898Z,11.95
2023-05-10T22:19:21.885Z,11.90
2023-05-10T22:21:49.045Z,11.90
2023-05-10T22:24:16.549Z,11.83
2023-05-10T22:26:47.338Z,11.75
2023-05-10T22:29:16.133Z,11.70
2023-05-10T22:31:44.000Z,11.58
2023-05-10T22:34:11.221Z,11.53
2023-05-10T22:36:38.448Z,11.47
2023-05-10T22:39:05.532Z,11.50
2023-05-10T22:41:35.084Z,11.53
2023-05-10T22:44:08.645Z,11.57
2023-05-10T22:46:37.817Z,11.57
2023-05-10T22:49:04.936Z,11.63
2023-05-10T22:51:34.983Z,11.64
2023-05-10T22:54:02.275Z,11.64
2023-05-10T22:56:29.622Z,11.63
2023-05-10T22:58:57.502Z,11.62
2023-05-10T23:01:24.714Z,11.65
2023-05-10T23:03:52.036Z,11.66
2023-05-10T23:06:19.344Z,11.64
2023-05-10T23:08:46.455Z,11.63
2023-05-10T23:11:13.409Z,11.66
2023-05-10T23:13:40.516Z,11.66
2023-05-10T23:16:10.092Z,11.66
2023-05-10T23:18:37.535Z,11.68
2023-05-10T23:21:04.876Z,11.64
2023-05-10T23:23:34.433Z,11.63
2023-05-10T23:26:01.973Z,11.67
2023-05-10T23:28:29.894Z,11.64
2023-05-10T23:30:58.189Z,11.66
2023-05-10T23:33:25.725Z,11.66
2023-05-10T23:35:53.655Z,11.68
2023-05-10T23:38:20.968Z,11.68
2023-05-10T23:40:48.896Z,11.57
2023-05-10T23:43:16.599Z,11.47
2023-05-10T23:45:44.070Z,11.48
2023-05-10T23:48:11.413Z,11.44
2023-05-10T23:50:38.631Z,11.38
2023-05-10T23:53:05.805Z,11.36
2023-05-10T23:55:32.742Z,11.31
2023-05-10T23:58:00.116Z,11.26
